Branchville, NJ (07826)

7:00 PM EDT on May 28, 2015 (GMT -0400)
Kittatinny Lake | | Change Station
CLOSE
Current Station
Personal Weather Station
Location: Branchville, NJ
Elevation: 912 ft
Nearby Weather Stations

Elev 912 ft 41.17 °N, 74.80 °W | Updated 2 seconds ago

Partly Cloudy
Partly Cloudy
79.3 °F
Feels Like 79 °F
N
2.0
Wind Variable Wind from West
Gusts 2.5 mph

Today
High -- | Low -- °F
--% Chance of Precip.
Yesterday
High -- | Low -- °F
Precip. -- in
5:30 AM 8:22 PM
Waxing Gibbous, 79% visible
Pressure 30.19 in
Visibility 10.0 miles
Clouds Clear
Heat Index 79 °F
Dew Point 51 °F
Humidity 37%
Rainfall 0.00 in
Snow Depth Not available.
UV 1 out of 12
Pollen 8.50 out of 12
Air Quality Not available.
Flu Activity Sporadic
METAR KFWN 282253Z AUTO 32009G15KT 290V360 10SM CLR 27/11 A3020 RMK AO2 SLP223 T02670106

More Conditions Fewer Conditions

Pressure 30.19 in
Visibility 10.0 miles
Clouds Clear
Heat Index 79 °F
Dew Point 51 °F
Humidity 37%
Rainfall 0.00 in
Snow Depth Not available.
UV 1 out of 12
Pollen 8.50 out of 12
Air Quality Not available.
Flu Activity Sporadic
METAR KFWN 282253Z AUTO 32009G15KT 290V360 10SM CLR 27/11 A3020 RMK AO2 SLP223 T02670106

More Conditions Fewer Conditions

10-Day Weather Forecast

Almanac

Astronomy

May. 28, 2015 Rise Set
Actual Time
Civil Twilight
Nautical Twilight
Astronomical Twilight
Moon
Length of Visible Light
Length of Day
Tomorrow will be .
, % of the Moon is Illuminated

Today's Extremes

State Highs State Lows

Community

WunderPhotos

Upload Photos

1,825,089 photos uploaded!

WunderBlogs® & News

Nearby

Air Quality

  Air Quality AQ Index Pollutant
Not available.

Snow Depth

Station Depth Elevation

Earthquake Activity

City Distance Mag. Time & Date
Minimum magnitude displayed is 2.5.

Coastal Water Temperatures

Place Temperature

Stations

Nearby Weather Stations

Station Location Temp. Windchill Dew Point Humidity Wind Precip. Elev Updated Type